^^
Station Historical Data
Daily Summary for Nil La, TWC- Units:  English    Metric   Both
« Previous Day
Next Day »
Daily Weekly Monthly Yearly Custom
  High: Low: Average:
Temperature: TemperatureF °F 44.8 °F 49.8 °F
Dew Point: DewpointF °F 10.9 °F 22.6 °F
Humidity: Humidity% 13% 35%
Wind Speed: WindSpeedMPHmph 0mph 0.1mph
Wind Gust: WindSpeedGustMPHmph - -
Wind- - ESE
Pressure: PressureIn in 29.91 in -
Precipitation: 0 in    
Historical Graphs
 
 
Tabular Data for Nil La, TWC-
Time Temperature Dew Point Pressure Wind Wind Speed Wind Gust Humidity Rainfall Rate (Hourly) solar Conditions
TemperatureF °F DewpointF °F PressureIn in Calm     Humidity% HourlyPrecipIn in SolarRadiationWatts/m^2 W/m2 Conditions
00:04 53.2 °F 29.5 °F 29.95 in Calm     40% 0 in 0.00 W/m2
00:09 53.1 °F 29.3 °F 29.95 in Calm   2 mph 40% 0 in 0.00 W/m2
00:14 52.9 °F 29.3 °F 29.95 in Calm   1 mph 40% 0 in 0.00 W/m2
00:19 52.9 °F 29.3 °F 29.95 in Calm     40% 0 in 0.00 W/m2
00:24 52.9 °F 29.3 °F 29.95 in Calm     40% 0 in 0.00 W/m2
00:29 52.9 °F 29.3 °F 29.95 in Calm     40% 0 in 0.00 W/m2
00:33 52.7 °F 29.1 °F 29.95 in Calm     40% 0 in 0.00 W/m2
00:39 52.3 °F 28.8 °F 29.95 in East 0.9 mph 1 mph 40% 0 in 0.00 W/m2
00:44 52.3 °F 28.8 °F 29.95 in Calm   1 mph 40% 0 in 0.00 W/m2
00:49 52.3 °F 28.8 °F 29.95 in Calm     40% 0 in 0.00 W/m2
00:54 52.2 °F 28.6 °F 29.95 in Calm     40% 0 in 0.00 W/m2
00:59 52 °F 28.9 °F 29.95 in Calm     41% 0 in 0.00 W/m2
01:04 51.8 °F 28.2 °F 29.95 in Calm     40% 0 in 0.00 W/m2
01:09 51.6 °F 28.8 °F 29.94 in Calm     41% 0 in 0.00 W/m2
01:14 51.6 °F 28 °F 29.94 in Calm     40% 0 in 0.00 W/m2
01:18 51.6 °F 28 °F 29.94 in Calm   2 mph 40% 0 in 0.00 W/m2
01:24 51.6 °F 28 °F 29.94 in Calm     40% 0 in 0.00 W/m2
01:29 51.6 °F 27.5 °F 29.94 in Calm   1 mph 39% 0 in 0.00 W/m2
01:34 51.6 °F 27.5 °F 29.94 in East 0.9 mph 2 mph 39% 0 in 0.00 W/m2
01:39 51.4 °F 27.3 °F 29.94 in Calm   1 mph 39% 0 in 0.00 W/m2
01:44 51.4 °F 27.3 °F 29.94 in Calm   2 mph 39% 0 in 0.00 W/m2
01:49 51.3 °F 27.1 °F 29.93 in Calm   1 mph 39% 0 in 0.00 W/m2
01:54 51.1 °F 27 °F 29.93 in Calm   1 mph 39% 0 in 0.00 W/m2
01:59 50.9 °F 26.2 °F 29.93 in Calm     38% 0 in 0.00 W/m2
02:04 50.7 °F 26.1 °F 29.93 in Calm     38% 0 in 0.00 W/m2
02:09 50.7 °F 26.1 °F 29.93 in Calm     38% 0 in 0.00 W/m2
02:14 50.7 °F 26.1 °F 29.93 in Calm     38% 0 in 0.00 W/m2
02:19 50.7 °F 26.1 °F 29.92 in Calm     38% 0 in 0.00 W/m2
02:24 50.7 °F 25.3 °F 29.92 in Calm     37% 0 in 0.00 W/m2
02:29 50.5 °F 25.2 °F 29.92 in Calm     37% 0 in 0.00 W/m2
02:34 50.2 °F 24.3 °F 29.92 in Calm     36% 0 in 0.00 W/m2
02:39 49.8 °F 23.9 °F 29.92 in Calm     36% 0 in 0.00 W/m2
02:44 49.6 °F 23.7 °F 29.92 in Calm     36% 0 in 0.00 W/m2
02:49 49.5 °F 23.5 °F 29.92 in Calm     36% 0 in 0.00 W/m2
02:54 49.3 °F 24.1 °F 29.92 in Calm     37% 0 in 0.00 W/m2
02:59 48.9 °F 23.7 °F 29.92 in Calm     37% 0 in 0.00 W/m2
03:04 48.7 °F 23.5 °F 29.92 in Calm   2 mph 37% 0 in 0.00 W/m2
03:09 48.6 °F 23.5 °F 29.91 in Calm   1 mph 37% 0 in 0.00 W/m2
03:14 48.6 °F 23.5 °F 29.91 in Calm   2 mph 37% 0 in 0.00 W/m2
03:19 48.6 °F 22.8 °F 29.91 in Calm     36% 0 in 0.00 W/m2
03:24 48.6 °F 22.8 °F 29.92 in Calm     36% 0 in 0.00 W/m2
03:29 48.4 °F 22.6 °F 29.92 in Calm     36% 0 in 0.00 W/m2
03:34 48.4 °F 22.6 °F 29.92 in Calm     36% 0 in 0.00 W/m2
03:39 48 °F 22.3 °F 29.92 in Calm     36% 0 in 0.00 W/m2
03:44 47.8 °F 22.1 °F 29.91 in Calm     36% 0 in 0.00 W/m2
03:49 47.8 °F 21.6 °F 29.91 in Calm   2 mph 35% 0 in 0.00 W/m2
03:54 48 °F 21 °F 29.91 in Calm     34% 0 in 0.00 W/m2
03:59 48.2 °F 20.5 °F 29.91 in Calm   1 mph 33% 0 in 0.00 W/m2
04:04 48.4 °F 20.7 °F 29.91 in Calm   1 mph 33% 0 in 0.00 W/m2
04:09 48.4 °F 21.4 °F 29.91 in Calm     34% 0 in 0.00 W/m2
04:14 48.4 °F 20.7 °F 29.91 in Calm     33% 0 in 0.00 W/m2
04:19 48.4 °F 21.4 °F 29.91 in Calm     34% 0 in 0.00 W/m2
04:24 48 °F 20.3 °F 29.91 in Calm     33% 0 in 0.00 W/m2
04:29 48 °F 19.6 °F 29.91 in Calm   1 mph 32% 0 in 0.00 W/m2
04:34 47.8 °F 20.1 °F 29.91 in Calm   1 mph 33% 0 in 0.00 W/m2
04:39 47.8 °F 18.7 °F 29.91 in Calm     31% 0 in 0.00 W/m2
04:44 47.7 °F 18.5 °F 29.91 in Calm   1 mph 31% 0 in 0.00 W/m2
04:49 47.8 °F 18.7 °F 29.91 in Calm     31% 0 in 0.00 W/m2
04:54 47.8 °F 18.7 °F 29.91 in Calm   1 mph 31% 0 in 0.00 W/m2
04:59 47.8 °F 18 °F 29.91 in SE 2 mph 2 mph 30% 0 in 0.00 W/m2
05:04 48 °F 17.2 °F 29.91 in Calm   1 mph 29% 0 in 0.00 W/m2
05:09 48 °F 16.5 °F 29.91 in SE 0.9 mph 5 mph 28% 0 in 0.00 W/m2
05:14 48.4 °F 16.7 °F 29.91 in Calm   1 mph 28% 0 in 0.00 W/m2
05:19 48.6 °F 16.9 °F 29.91 in Calm     28% 0 in 0.00 W/m2
05:24 48.6 °F 17.8 °F 29.91 in Calm     29% 0 in 0.00 W/m2
05:29 48.4 °F 18.3 °F 29.91 in Calm     30% 0 in 0.00 W/m2
05:34 48 °F 18.9 °F 29.91 in Calm     31% 0 in 0.00 W/m2
05:39 47.8 °F 18 °F 29.91 in Calm     30% 0 in 0.00 W/m2
05:44 47.5 °F 16.9 °F 29.91 in Calm     29% 0 in 0.00 W/m2
05:49 47.5 °F 18.3 °F 29.91 in Calm     31% 0 in 0.00 W/m2
05:54 47.1 °F 18 °F 29.91 in Calm     31% 0 in 0.00 W/m2
05:59 47.1 °F 18 °F 29.91 in Calm     31% 0 in 0.00 W/m2
06:04 46.9 °F 17.1 °F 29.92 in Calm     30% 0 in 0.00 W/m2
06:09 46.8 °F 17.8 °F 29.92 in Calm     31% 0 in 0.00 W/m2
06:14 46.6 °F 17.6 °F 29.92 in Calm     31% 0 in 0.00 W/m2
06:19 46.6 °F 17.6 °F 29.92 in Calm     31% 0 in 0.00 W/m2
06:24 46.2 °F 18 °F 29.92 in Calm     32% 0 in 0.00 W/m2
06:29 46 °F 18.5 °F 29.92 in Calm     33% 0 in 0.00 W/m2
06:34 46 °F 19.2 °F 29.92 in Calm     34% 0 in 0.00 W/m2
06:39 45.9 °F 18.3 °F 29.92 in Calm     33% 0 in 0.00 W/m2
06:44 45.7 °F 18.1 °F 29.92 in Calm     33% 0 in 0.00 W/m2
06:49 45.7 °F 18.1 °F 29.92 in Calm     33% 0 in 0.00 W/m2
06:54 45.3 °F 18 °F 29.93 in Calm     33% 0 in 0.00 W/m2
06:59 45.1 °F 17.8 °F 29.93 in Calm     33% 0 in 0.00 W/m2
07:04 45.1 °F 17.1 °F 29.93 in Calm     32% 0 in 0.00 W/m2
07:09 45 °F 18.3 °F 29.93 in Calm     34% 0 in 0.00 W/m2
07:14 45 °F 18.9 °F 29.93 in Calm     35% 0 in 0.00 W/m2
07:19 44.8 °F 19.4 °F 29.94 in Calm     36% 0 in 7.00 W/m2
07:24 44.8 °F 23 °F 29.93 in Calm   2 mph 42% 0 in 11.00 W/m2
07:29 45.3 °F 29.1 °F 29.93 in SSE 2 mph 6 mph 53% 0 in 14.00 W/m2
07:34 46 °F 29.5 °F 29.94 in Calm   5 mph 52% 0 in 18.00 W/m2
07:39 46.8 °F 30 °F 29.94 in Calm   1 mph 52% 0 in 23.00 W/m2
07:44 47.1 °F 30.4 °F 29.94 in Calm     52% 0 in 26.00 W/m2
07:49 47.5 °F 30.7 °F 29.94 in Calm     52% 0 in 30.00 W/m2
07:54 47.7 °F 30.9 °F 29.94 in Calm     52% 0 in 33.00 W/m2
07:59 48 °F 31.3 °F 29.95 in Calm     52% 0 in 37.00 W/m2
08:04 48.4 °F 31.1 °F 29.94 in Calm   1 mph 51% 0 in 42.00 W/m2
08:09 48.6 °F 29.8 °F 29.95 in Calm     48% 0 in 44.00 W/m2
08:13 48.7 °F 27.9 °F 29.95 in Calm   1 mph 44% 0 in 47.00 W/m2
08:24 48.9 °F 22.5 °F 29.95 in Calm   1 mph 35% 0 in 56.00 W/m2
08:29 49.1 °F 21.2 °F 29.95 in Calm   2 mph 33% 0 in 58.00 W/m2
08:34 49.3 °F 20.7 °F 29.95 in Calm   2 mph 32% 0 in 63.00 W/m2
08:39 49.6 °F 19.4 °F 29.95 in Calm   1 mph 30% 0 in 65.00 W/m2
08:44 50.2 °F 21.4 °F 29.95 in Calm   2 mph 32% 0 in 70.00 W/m2
08:49 50.9 °F 26.2 °F 29.95 in Calm   1 mph 38% 0 in 70.00 W/m2
08:54 51.4 °F 28.6 °F 29.95 in Calm   1 mph 41% 0 in 81.00 W/m2
08:59 52.3 °F 28.8 °F 29.95 in Calm     40% 0 in 76.00 W/m2
09:04 52.9 °F 25.9 °F 29.95 in Calm   2 mph 35% 0 in 79.00 W/m2
09:09 53.4 °F 25 °F 29.95 in Calm   1 mph 33% 0 in 81.00 W/m2
09:14 54.1 °F 23.4 °F 29.95 in Calm     30% 0 in 84.00 W/m2
09:19 54.7 °F 23 °F 29.95 in Calm     29% 0 in 86.00 W/m2
09:24 55 °F 23.4 °F 29.96 in Calm     29% 0 in 88.00 W/m2
09:29 55.6 °F 22.1 °F 29.96 in Calm     27% 0 in 90.00 W/m2
09:34 56.1 °F 23.4 °F 29.96 in Calm     28% 0 in 95.00 W/m2
09:39 56.8 °F 22.3 °F 29.96 in Calm   2 mph 26% 0 in 411.00 W/m2
09:44 57.7 °F 22.1 °F 29.96 in Calm     25% 0 in 425.00 W/m2
09:49 58.8 °F 22.1 °F 29.96 in Calm     24% 0 in 443.00 W/m2
09:54 60.3 °F 21.2 °F 29.96 in Calm     22% 0 in 457.00 W/m2
09:59 61.3 °F 14.7 °F 29.96 in Calm     16% 0 in 475.00 W/m2
10:04 61.7 °F 12 °F 29.96 in Calm   1 mph 14% 0 in 496.00 W/m2
10:09 62.1 °F 13.8 °F 29.96 in Calm   1 mph 15% 0 in 513.00 W/m2
10:14 62.4 °F 10.9 °F 29.96 in Calm   1 mph 13% 0 in 522.00 W/m2
10:19 63 °F 12.9 °F 29.96 in Calm     14% 0 in 540.00 W/m2
10:24 63.7 °F 13.6 °F 29.96 in Calm   1 mph 14% 0 in 555.00 W/m2
Olympia, Windhoek, Namibia
Compliments of Weather Underground - 2.5 mb